Time;durP1;ratioP1;P1;durP2;ratioP2;P2;SDS_P1;SDS_P2;PMS_P1;PMS_P2;Temp;Humidity;BMP_temperature;BMP_pressure;BME280_temperature;BME280_humidity;BME280_pressure;Samples;Min_cycle;Max_cycle;Signal;HPM_P1;HPM_P2
2023/10/20 00:00:05;;;;;;;;;;;;;;;25.55;32.05;100201.78;5071300;28;1906;-39
2023/10/20 00:02:31;;;;;;;;;;;;;;;25.51;32.17;100195.06;5076017;28;1054;-40
2023/10/20 00:04:57;;;;;;;;;;;;;;;25.52;32.08;100203.00;5060303;28;1162;-41
2023/10/20 00:07:22;;;;;;;;;;;;;;;25.50;32.19;100206.88;5065096;28;1175;-39
2023/10/20 00:09:49;;;;;;;;;;;;;;;25.54;32.41;100192.84;5059859;28;1115;-41
2023/10/20 00:12:15;;;;;;;;;;;;;;;25.54;32.48;100189.34;5063778;28;913;-41
2023/10/20 00:14:41;;;;;;;;;;;;;;;25.49;32.44;100184.50;5069206;28;1043;-42
2023/10/20 00:17:06;;;;;;;;;;;;;;;25.55;31.85;100178.38;5055954;28;1185;-41
2023/10/20 00:19:32;;;;;;;;;;;;;;;25.45;32.49;100177.81;5069389;28;1969;-40
2023/10/20 00:21:57;;;;;;;;;;;;;;;25.29;32.81;100166.19;5065269;28;1188;-41
2023/10/20 00:24:23;;;;;;;;;;;;;;;25.33;32.70;100169.38;5057972;28;879;-41
2023/10/20 00:26:49;;;;;;;;;;;;;;;25.42;32.46;100164.75;5065657;28;1198;-42
2023/10/20 00:29:14;;;;;;;;;;;;;;;25.50;32.34;100171.88;5062339;28;1135;-40
2023/10/20 00:31:40;;;;;;;;;;;;;;;25.33;32.33;100163.13;5066134;28;1074;-39
2023/10/20 00:34:06;;;;;;;;;;;;;;;25.29;32.47;100168.91;5056051;28;1154;-41
2023/10/20 00:36:31;;;;;;;;;;;;;;;25.33;32.73;100165.81;5063210;28;859;-40
2023/10/20 00:38:57;;;;;;;;;;;;;;;25.39;32.50;100159.72;5075194;28;1910;-41
2023/10/20 00:41:23;;;;;;;;;;;;;;;25.42;32.58;100157.47;5077795;28;1170;-41
2023/10/20 00:43:48;;;;;;;;;;;;;;;25.36;32.65;100157.41;5065994;28;1210;-41
2023/10/20 00:46:14;;;;;;;;;;;;;;;25.26;32.82;100155.81;5079429;28;1110;-40
2023/10/20 00:48:39;;;;;;;;;;;;;;;25.47;32.12;100148.00;5066174;28;1070;-42
2023/10/20 00:51:05;;;;;;;;;;;;;;;25.39;32.10;100147.06;5061075;28;1094;-40
2023/10/20 00:53:32;;;;;;;;;;;;;;;25.39;32.29;100138.19;5056785;28;1162;-42
2023/10/20 00:55:57;;;;;;;;;;;;;;;25.35;32.53;100135.03;5079299;28;1047;-39
2023/10/20 00:58:26;;;;;;;;;;;;;;;25.52;32.24;100148.28;5058988;28;1173;-41
2023/10/20 01:00:52;;;;;;;;;;;;;;;25.48;32.14;100153.22;5059881;28;1985;-41
2023/10/20 01:03:17;;;;;;;;;;;;;;;25.44;32.44;100146.53;5047511;28;1122;-41
2023/10/20 01:05:43;;;;;;;;;;;;;;;25.38;32.50;100144.56;5070107;28;1091;-39
2023/10/20 01:08:08;;;;;;;;;;;;;;;25.42;32.29;100148.56;5043321;28;1055;-41
2023/10/20 01:10:34;;;;;;;;;;;;;;;25.54;32.32;100152.47;5051816;28;1231;-41
2023/10/20 01:12:59;;;;;;;;;;;;;;;25.54;32.29;100152.47;5077770;28;991;-42
2023/10/20 01:15:25;;;;;;;;;;;;;;;25.60;31.94;100152.72;5060979;28;1242;-43
2023/10/20 01:17:50;;;;;;;;;;;;;;;25.52;32.30;100154.53;5058205;28;1176;-41
2023/10/20 01:20:16;;;;;;;;;;;;;;;25.52;32.23;100142.91;5057979;28;1906;-41
2023/10/20 01:22:41;;;;;;;;;;;;;;;25.49;32.12;100156.75;5040402;28;1300;-41
2023/10/20 01:25:07;;;;;;;;;;;;;;;25.49;32.25;100149.47;5050042;28;1015;-42
2023/10/20 01:27:33;;;;;;;;;;;;;;;25.41;32.63;100146.88;5035654;28;1044;-41
2023/10/20 01:29:58;;;;;;;;;;;;;;;25.48;32.15;100142.44;5050349;28;1035;-42
2023/10/20 01:32:24;;;;;;;;;;;;;;;25.43;32.30;100144.84;5053255;28;1148;-43
2023/10/20 01:34:49;;;;;;;;;;;;;;;25.50;32.44;100143.09;5040385;28;1049;-41
2023/10/20 01:37:15;;;;;;;;;;;;;;;25.49;32.03;100124.44;5040232;28;1136;-42
2023/10/20 01:39:44;;;;;;;;;;;;;;;25.52;32.21;100124.91;5049698;28;1980;-41
2023/10/20 01:42:10;;;;;;;;;;;;;;;25.44;32.28;100136.59;5051006;28;1136;-41
2023/10/20 01:44:35;;;;;;;;;;;;;;;25.58;31.87;100126.00;5038520;28;1028;-41
2023/10/20 01:47:01;;;;;;;;;;;;;;;25.54;31.86;100133.59;5024510;28;1282;-42
2023/10/20 01:49:26;;;;;;;;;;;;;;;25.50;31.87;100129.63;5057900;28;1177;-39
2023/10/20 01:51:52;;;;;;;;;;;;;;;25.53;31.72;100128.41;5055492;28;1043;-39
2023/10/20 01:54:17;;;;;;;;;;;;;;;24.75;32.45;100125.00;5028155;28;1103;-38
2023/10/20 01:56:43;;;;;;;;;;;;;;;24.59;33.21;100123.28;5034101;28;1666;-40
2023/10/20 01:59:09;;;;;;;;;;;;;;;25.13;32.45;100116.09;5031094;28;1902;-37
2023/10/20 02:01:35;;;;;;;;;;;;;;;25.27;32.35;100114.44;5038287;28;1272;-42
2023/10/20 02:04:00;;;;;;;;;;;;;;;25.42;31.78;100110.88;5053933;28;1027;-39
2023/10/20 02:06:26;;;;;;;;;;;;;;;25.33;32.26;100106.59;5057336;28;1035;-41
2023/10/20 02:08:51;;;;;;;;;;;;;;;25.24;32.37;100108.56;5032252;28;1123;-42
2023/10/20 02:11:17;;;;;;;;;;;;;;;25.27;32.02;100100.97;5050904;28;1067;-40
2023/10/20 02:13:42;;;;;;;;;;;;;;;25.30;31.82;100116.75;5057575;28;1058;-38
2023/10/20 02:16:08;;;;;;;;;;;;;;;25.22;32.42;100108.75;5039376;28;1128;-39
2023/10/20 02:18:34;;;;;;;;;;;;;;;25.24;32.36;100108.56;5070359;28;1075;-40
2023/10/20 02:21:03;;;;;;;;;;;;;;;25.36;31.75;100112.44;5046332;28;1976;-40
2023/10/20 02:23:32;;;;;;;;;;;;;;;25.27;31.99;100111.75;5058723;28;1290;-40
2023/10/20 02:25:59;;;;;;;;;;;;;;;25.29;32.10;100114.25;5059231;28;1097;-40
2023/10/20 02:28:25;;;;;;;;;;;;;;;25.25;32.14;100107.53;5077355;28;1008;-40
2023/10/20 02:30:51;;;;;;;;;;;;;;;25.25;31.81;100108.38;5076945;28;1094;-41
2023/10/20 02:33:18;;;;;;;;;;;;;;;25.20;32.16;100102.72;5068103;28;1111;-39
2023/10/20 02:35:44;;;;;;;;;;;;;;;25.15;32.50;100097.91;5060859;28;1098;-39
2023/10/20 02:38:10;;;;;;;;;;;;;;;25.21;32.28;100093.63;5049767;28;1113;-41
2023/10/20 02:40:35;;;;;;;;;;;;;;;25.30;32.26;100099.75;5054514;28;1905;-38
2023/10/20 02:43:01;;;;;;;;;;;;;;;25.19;31.99;100101.06;5058896;28;1181;-40
2023/10/20 02:45:26;;;;;;;;;;;;;;;25.21;32.40;100101.69;5061589;28;1127;-40
2023/10/20 02:47:52;;;;;;;;;;;;;;;25.23;32.18;100105.03;5061376;28;1160;-41
2023/10/20 02:50:18;;;;;;;;;;;;;;;25.24;32.25;100114.78;5072114;28;1148;-41
2023/10/20 02:52:44;;;;;;;;;;;;;;;25.21;32.26;100115.16;5058829;28;1074;-40
2023/10/20 02:55:09;;;;;;;;;;;;;;;25.11;32.35;100110.03;5061523;28;1131;-42
2023/10/20 02:57:36;;;;;;;;;;;;;;;25.18;31.96;100110.13;5044513;28;1187;-38
2023/10/20 03:00:05;;;;;;;;;;;;;;;25.09;31.84;100113.94;5067029;28;1901;-44
2023/10/20 03:02:30;;;;;;;;;;;;;;;24.84;31.76;100106.91;5023313;28;1103;-45
2023/10/20 03:04:56;;;;;;;;;;;;;;;24.14;32.57;100101.59;5056547;28;1052;-45
2023/10/20 03:07:24;;;;;;;;;;;;;;;23.84;32.26;100099.59;5062033;28;1119;-45
2023/10/20 03:09:51;;;;;;;;;;;;;;;23.87;33.00;100101.94;5058585;28;1190;-44
2023/10/20 03:12:16;;;;;;;;;;;;;;;24.08;32.76;100101.31;5075817;28;1055;-46
2023/10/20 03:14:42;;;;;;;;;;;;;;;23.98;33.38;100103.38;5076579;28;1051;-42
2023/10/20 03:17:09;;;;;;;;;;;;;;;24.04;33.33;100099.97;5058069;28;1052;-41
2023/10/20 03:19:35;;;;;;;;;;;;;;;23.98;32.37;100092.63;5063950;28;1914;-41
2023/10/20 03:22:02;;;;;;;;;;;;;;;24.09;32.20;100084.16;5075711;28;1195;-41
2023/10/20 03:24:28;;;;;;;;;;;;;;;23.90;32.40;100090.84;5053967;28;2289;-40
2023/10/20 03:26:54;;;;;;;;;;;;;;;23.77;32.69;100077.16;5068465;28;2001;-38
2023/10/20 03:29:19;;;;;;;;;;;;;;;23.75;32.88;100087.22;5067306;28;2064;-38
2023/10/20 03:31:45;;;;;;;;;;;;;;;23.64;33.61;100091.97;5058508;28;1849;-42
2023/10/20 03:34:10;;;;;;;;;;;;;;;23.58;34.03;100084.63;5067191;28;2172;-45
2023/10/20 03:36:36;;;;;;;;;;;;;;;23.70;33.79;100080.56;5064868;28;2050;-44
2023/10/20 03:39:02;;;;;;;;;;;;;;;23.72;33.86;100078.50;5043767;28;2203;-40
2023/10/20 03:41:30;;;;;;;;;;;;;;;23.66;34.19;100083.75;5055973;28;1051;-43
2023/10/20 03:43:56;;;;;;;;;;;;;;;23.75;34.09;100076.50;5055730;28;1048;-40
2023/10/20 03:46:21;;;;;;;;;;;;;;;23.71;33.93;100068.78;5060948;28;1092;-40
2023/10/20 03:48:47;;;;;;;;;;;;;;;23.59;33.84;100062.13;5069479;28;1039;-44
2023/10/20 03:51:12;;;;;;;;;;;;;;;23.62;34.23;100061.81;5068737;28;1142;-43
2023/10/20 03:53:46;;;;;;;;;;;;;;;23.59;35.50;100065.66;5061699;28;1098;-39
2023/10/20 03:56:12;;;;;;;;;;;;;;;23.43;36.52;100058.53;5052379;28;1243;-37
2023/10/20 03:58:42;;;;;;;;;;;;;;;23.66;34.43;100054.22;5058408;28;1553;-40
2023/10/20 04:01:07;;;;;;;;;;;;;;;23.63;34.83;100051.88;5073221;28;1905;-39
2023/10/20 04:03:33;;;;;;;;;;;;;;;22.94;36.27;100054.16;5073493;28;1234;-39
2023/10/20 04:06:00;;;;;;;;;;;;;;;22.95;36.83;100061.19;5070768;28;1074;-42
2023/10/20 04:08:26;;;;;;;;;;;;;;;23.64;35.15;100062.44;5074940;28;2416;-37
2023/10/20 04:10:57;;;;;;;;;;;;;;;23.90;34.77;100061.31;5063721;28;1026;-39
2023/10/20 04:13:23;;;;;;;;;;;;;;;23.89;34.84;100061.47;5068588;28;1037;-39
2023/10/20 04:15:49;;;;;;;;;;;;;;;23.95;34.83;100058.06;5067248;28;1007;-35
2023/10/20 04:18:15;;;;;;;;;;;;;;;23.99;34.70;100056.69;5078182;28;1211;-37
2023/10/20 04:20:41;;;;;;;;;;;;;;;24.16;34.11;100053.88;5066863;28;1917;-41
2023/10/20 04:23:07;;;;;;;;;;;;;;;24.25;34.20;100055.53;5057186;28;1375;-41
2023/10/20 04:25:38;;;;;;;;;;;;;;;24.41;33.67;100053.69;5058271;28;1326;-40
2023/10/20 04:47:08;;;;;;;;;;;;;;;25.12;33.56;100054.38;5078422;28;1204;-41
2023/10/20 04:59:44;;;;;;;;;;;;;;;25.09;34.22;100054.75;5065503;28;1910;-39
2023/10/20 05:04:54;;;;;;;;;;;;;;;25.34;34.03;100046.38;5057898;28;1123;-36
2023/10/20 05:07:26;;;;;;;;;;;;;;;25.42;33.58;100067.81;5058483;28;1040;-36
2023/10/20 05:09:54;;;;;;;;;;;;;;;25.34;34.41;100065.22;5061164;28;2298;-39
2023/10/20 05:12:20;;;;;;;;;;;;;;;25.55;33.83;100070.66;5078461;28;1073;-39
2023/10/20 05:14:47;;;;;;;;;;;;;;;25.50;34.38;100088.41;5061769;28;1296;-37
2023/10/20 05:17:15;;;;;;;;;;;;;;;25.54;34.22;100095.09;5077485;28;1229;-34
2023/10/20 05:19:40;;;;;;;;;;;;;;;25.41;34.51;100083.13;5077933;28;1906;-36
2023/10/20 05:22:05;;;;;;;;;;;;;;;25.43;34.35;100089.16;5077820;28;1122;-36
2023/10/20 05:24:31;;;;;;;;;;;;;;;25.54;34.59;100092.41;5063797;28;1202;-35
2023/10/20 05:26:56;;;;;;;;;;;;;;;25.37;34.26;100065.69;5057519;28;984;-41
2023/10/20 05:29:22;;;;;;;;;;;;;;;25.46;34.31;100077.16;5076596;28;1092;-40
2023/10/20 05:31:47;;;;;;;;;;;;;;;25.64;34.33;100078.66;5077777;28;1026;-37
2023/10/20 05:34:14;;;;;;;;;;;;;;;25.45;34.92;100080.88;5071600;28;1080;-36
2023/10/20 05:36:41;;;;;;;;;;;;;;;25.62;34.33;100076.13;5070905;28;1080;-39
2023/10/20 05:39:09;;;;;;;;;;;;;;;25.72;34.23;100078.56;5077691;28;1968;-35
2023/10/20 05:41:34;;;;;;;;;;;;;;;25.23;34.24;99977.69;5078324;28;1078;-37
2023/10/20 05:44:01;;;;;;;;;;;;;;;26.02;33.86;100080.31;5077962;28;1067;-39
2023/10/20 05:46:26;;;;;;;;;;;;;;;25.97;33.90;100077.34;5077455;28;1050;-39
2023/10/20 05:48:52;;;;;;;;;;;;;;;25.94;34.22;100066.97;5063638;28;1135;-34
2023/10/20 05:51:18;;;;;;;;;;;;;;;25.88;34.28;100074.78;5057877;28;1059;-39
2023/10/20 05:53:43;;;;;;;;;;;;;;;25.92;34.50;100072.53;5061613;28;1031;-38
2023/10/20 05:56:09;;;;;;;;;;;;;;;26.02;34.00;100069.53;5060351;28;1218;-35
2023/10/20 05:58:34;;;;;;;;;;;;;;;26.11;34.14;100073.75;5064156;28;1066;-35
2023/10/20 06:01:04;;;;;;;;;;;;;;;26.16;34.36;100079.41;5076336;28;1981;-38
2023/10/20 06:03:30;;;;;;;;;;;;;;;26.03;34.73;100080.09;5071357;28;1060;-41
2023/10/20 06:06:00;;;;;;;;;;;;;;;25.94;34.76;100077.72;5067811;28;1392;-39
2023/10/20 06:08:26;;;;;;;;;;;;;;;25.84;34.79;100072.66;5077347;28;1126;-42
2023/10/20 06:10:52;;;;;;;;;;;;;;;25.86;34.83;100076.81;5066245;28;1086;-42
2023/10/20 06:13:18;;;;;;;;;;;;;;;25.93;34.82;100079.59;5058847;28;1083;-41
2023/10/20 06:15:44;;;;;;;;;;;;;;;25.92;34.89;100069.84;5068634;28;1120;-42
2023/10/20 06:18:10;;;;;;;;;;;;;;;25.90;34.89;100066.50;5054127;28;1136;-44
2023/10/20 06:20:39;;;;;;;;;;;;;;;25.85;34.89;100067.06;5056685;28;1906;-42
2023/10/20 06:23:04;;;;;;;;;;;;;;;25.71;34.94;100067.97;5052090;28;1076;-40
2023/10/20 06:25:33;;;;;;;;;;;;;;;25.83;35.33;100070.97;5044822;28;1211;-35
2023/10/20 06:27:58;;;;;;;;;;;;;;;26.08;34.94;100071.44;5055798;28;1128;-40
2023/10/20 06:30:24;;;;;;;;;;;;;;;26.33;34.67;100064.84;5044473;28;1180;-40
2023/10/20 06:35:33;;;;;;;;;;;;;;;26.06;34.82;100053.81;5055827;28;1095;-41
2023/10/20 06:40:33;;;;;;;;;;;;;;;26.36;34.24;100061.78;5054036;28;1926;-35
2023/10/20 06:42:59;;;;;;;;;;;;;;;26.33;34.52;100054.06;5045345;28;1056;-35
2023/10/20 06:45:24;;;;;;;;;;;;;;;26.52;34.22;100058.81;5049501;28;1148;-38
2023/10/20 06:47:49;;;;;;;;;;;;;;;26.62;34.21;100054.91;5053078;28;1363;-37
2023/10/20 06:50:15;;;;;;;;;;;;;;;26.55;34.15;100060.25;5052839;28;1363;-34
2023/10/20 06:52:40;;;;;;;;;;;;;;;26.57;34.58;100069.00;5056311;28;996;-39
2023/10/20 06:55:07;;;;;;;;;;;;;;;26.38;34.40;100059.69;5051301;28;1163;-39
2023/10/20 06:57:33;;;;;;;;;;;;;;;26.58;34.06;100057.16;5040801;28;1080;-39
2023/10/20 06:59:59;;;;;;;;;;;;;;;26.63;33.89;100062.81;5056264;28;1971;-40
2023/10/20 07:02:25;;;;;;;;;;;;;;;26.67;34.13;100059.72;5050498;28;1099;-36
2023/10/20 07:04:50;;;;;;;;;;;;;;;26.89;33.61;100060.50;5055037;28;1140;-36
2023/10/20 07:07:17;;;;;;;;;;;;;;;26.86;33.49;100064.41;5044404;28;1067;-39
2023/10/20 07:09:46;;;;;;;;;;;;;;;26.85;33.86;100060.06;5049549;28;1428;-38
2023/10/20 07:12:12;;;;;;;;;;;;;;;26.76;33.87;100058.50;5049469;28;1195;-36
2023/10/20 07:14:40;;;;;;;;;;;;;;;26.78;34.17;100051.06;5046418;28;1119;-38
2023/10/20 07:17:06;;;;;;;;;;;;;;;26.93;33.83;100050.09;5037212;28;1051;-36
2023/10/20 07:19:33;;;;;;;;;;;;;;;27.00;33.78;100051.84;5048805;28;1902;-41
2023/10/20 07:22:05;;;;;;;;;;;;;;;26.99;33.45;100058.25;5055078;28;1127;-33
2023/10/20 07:24:30;;;;;;;;;;;;;;;26.95;33.83;100054.28;5055814;28;1055;-37
2023/10/20 07:26:56;;;;;;;;;;;;;;;27.12;33.72;100056.69;5047811;28;886;-37
2023/10/20 07:29:21;;;;;;;;;;;;;;;27.04;33.73;100049.59;5042665;28;1114;-41
2023/10/20 07:31:47;;;;;;;;;;;;;;;27.19;33.78;100048.63;5043507;28;1222;-36
2023/10/20 07:34:13;;;;;;;;;;;;;;;27.36;33.07;100046.44;5042649;28;1548;-42
2023/10/20 07:36:38;;;;;;;;;;;;;;;27.25;33.30;100045.13;5045757;28;1082;-33
2023/10/20 07:39:04;;;;;;;;;;;;;;;27.28;33.33;100043.91;5042867;28;1910;-36
2023/10/20 07:41:29;;;;;;;;;;;;;;;27.36;33.42;100041.03;5036502;28;1044;-38
2023/10/20 07:43:56;;;;;;;;;;;;;;;27.53;33.04;100035.25;5048049;28;1180;-31
2023/10/20 07:46:22;;;;;;;;;;;;;;;27.38;33.49;100030.81;5046937;28;960;-40
2023/10/20 07:48:47;;;;;;;;;;;;;;;27.60;33.66;100036.94;5050712;28;1413;-35
2023/10/20 07:51:13;;;;;;;;;;;;;;;27.66;32.50;100031.75;5046539;28;1435;-37
2023/10/20 07:53:38;;;;;;;;;;;;;;;27.62;32.59;100039.44;5047076;28;1134;-35
2023/10/20 07:56:04;;;;;;;;;;;;;;;27.70;32.85;100024.91;5059617;28;1052;-35
2023/10/20 07:58:29;;;;;;;;;;;;;;;27.64;33.11;100023.84;5052768;28;1125;-35
2023/10/20 08:00:55;;;;;;;;;;;;;;;27.63;32.82;100022.16;5046702;28;1906;-35
2023/10/20 08:03:20;;;;;;;;;;;;;;;27.79;32.83;100023.72;5037886;28;1120;-37
2023/10/20 08:05:46;;;;;;;;;;;;;;;27.82;32.77;100020.59;5039533;28;1136;-40
2023/10/20 08:08:11;;;;;;;;;;;;;;;27.90;32.43;100024.13;5051473;28;1072;-34
2023/10/20 08:10:37;;;;;;;;;;;;;;;27.96;32.71;100020.63;5043009;28;1425;-38
2023/10/20 08:13:02;;;;;;;;;;;;;;;28.08;32.64;100021.66;5049578;28;1063;-32
2023/10/20 08:15:28;;;;;;;;;;;;;;;28.08;32.75;100027.06;5042383;28;1083;-37
2023/10/20 08:17:54;;;;;;;;;;;;;;;27.95;33.17;100022.47;5044404;28;1345;-31
2023/10/20 08:20:19;;;;;;;;;;;;;;;28.05;32.52;100022.06;5070257;28;1917;-36
2023/10/20 08:22:45;;;;;;;;;;;;;;;28.04;32.36;100020.41;5073231;28;1103;-33
2023/10/20 08:25:11;;;;;;;;;;;;;;;28.16;32.37;100023.31;5059466;28;1215;-34
2023/10/20 08:27:36;;;;;;;;;;;;;;;28.07;32.35;99995.66;5060962;28;1198;-35
2023/10/20 08:30:02;;;;;;;;;;;;;;;27.96;32.28;100012.50;5071515;28;1257;-36
2023/10/20 08:32:28;;;;;;;;;;;;;;;27.87;32.55;100007.31;5079532;28;1059;-36
2023/10/20 08:34:53;;;;;;;;;;;;;;;27.89;32.25;99998.13;5078406;28;1039;-33
2023/10/20 08:37:19;;;;;;;;;;;;;;;27.88;32.26;100010.81;5078758;28;1341;-37
2023/10/20 08:39:44;;;;;;;;;;;;;;;27.94;31.99;100010.00;5071473;28;1914;-37
2023/10/20 08:42:17;;;;;;;;;;;;;;;27.92;32.31;100016.66;5060365;28;1114;-35
2023/10/20 08:44:42;;;;;;;;;;;;;;;27.92;32.25;100003.97;5077553;28;1095;-33
2023/10/20 08:47:10;;;;;;;;;;;;;;;27.98;31.98;100008.53;5079187;28;1075;-39
2023/10/20 08:49:36;;;;;;;;;;;;;;;27.92;32.47;100003.97;5078648;28;1055;-36
2023/10/20 08:52:01;;;;;;;;;;;;;;;27.88;32.24;100005.41;5061127;28;1114;-38
2023/10/20 08:54:26;;;;;;;;;;;;;;;28.02;31.82;100003.56;5069721;28;1087;-35
2023/10/20 08:56:52;;;;;;;;;;;;;;;28.07;31.95;100011.88;5074648;28;1305;-38
2023/10/20 08:59:17;;;;;;;;;;;;;;;28.07;31.89;100008.34;5077767;28;1967;-35
2023/10/20 09:01:44;;;;;;;;;;;;;;;27.95;32.26;100006.25;5078790;28;1238;-38
2023/10/20 09:04:19;;;;;;;;;;;;;;;28.00;32.04;100008.34;5078264;28;857;-37
2023/10/20 09:06:44;;;;;;;;;;;;;;;28.07;31.89;100006.47;5078395;28;1078;-35
2023/10/20 09:09:10;;;;;;;;;;;;;;;28.04;31.85;99996.09;5067879;28;1019;-32
2023/10/20 09:11:36;;;;;;;;;;;;;;;28.07;32.02;100003.78;5066689;28;1036;-36
2023/10/20 09:14:02;;;;;;;;;;;;;;;28.22;31.78;100003.56;5078207;28;1161;-35
2023/10/20 09:16:28;;;;;;;;;;;;;;;28.22;31.70;100002.72;5077977;28;1019;-39
2023/10/20 09:18:53;;;;;;;;;;;;;;;28.23;31.67;99996.25;5078453;28;1250;-38
2023/10/20 09:21:20;;;;;;;;;;;;;;;28.56;31.99;99990.00;5076337;28;1906;-36
2023/10/20 09:23:54;;;;;;;;;;;;;;;28.48;31.55;99985.66;5066607;28;1067;-38
2023/10/20 09:26:20;;;;;;;;;;;;;;;28.68;31.36;99984.78;5071530;28;1039;-38
2023/10/20 09:28:49;;;;;;;;;;;;;;;28.56;31.46;99978.38;5069830;28;925;-35
2023/10/20 09:31:18;;;;;;;;;;;;;;;28.50;31.75;99974.63;5072462;28;1008;-40
2023/10/20 09:33:43;;;;;;;;;;;;;;;28.14;33.13;99981.31;5057801;28;1112;-35
2023/10/20 09:36:11;;;;;;;;;;;;;;;28.31;31.92;99976.31;5077695;28;1008;-34
2023/10/20 09:38:37;;;;;;;;;;;;;;;28.18;32.02;99969.84;5064693;28;1094;-36
2023/10/20 09:41:05;;;;;;;;;;;;;;;28.15;32.20;99964.03;5063849;28;1969;-33
2023/10/20 09:43:31;;;;;;;;;;;;;;;28.03;32.59;99958.44;5064878;28;1023;-32
2023/10/20 09:46:02;;;;;;;;;;;;;;;28.07;32.33;99955.09;5077566;28;973;-32
2023/10/20 09:48:27;;;;;;;;;;;;;;;27.94;33.04;99949.69;5077846;28;1095;-34
2023/10/20 09:50:53;;;;;;;;;;;;;;;28.41;31.65;99946.97;5057744;28;1138;-32
2023/10/20 09:53:18;;;;;;;;;;;;;;;28.34;32.12;99949.69;5039948;28;1118;-36
2023/10/20 09:55:44;;;;;;;;;;;;;;;28.39;31.84;99949.06;5046975;28;1096;-30
2023/10/20 09:58:11;;;;;;;;;;;;;;;28.50;31.91;99946.72;5046892;28;1188;-28
2023/10/20 10:00:37;;;;;;;;;;;;;;;28.70;31.31;99944.81;5077485;28;1906;-32
2023/10/20 10:03:03;;;;;;;;;;;;;;;28.44;32.12;99937.59;5073791;28;1050;-32
2023/10/20 10:05:29;;;;;;;;;;;;;;;28.54;31.74;99940.72;5039752;28;1111;-29
2023/10/20 10:08:07;;;;;;;;;;;;;;;28.38;31.85;99931.16;5070490;28;1048;-30
2023/10/20 10:10:33;;;;;;;;;;;;;;;28.47;31.73;99910.13;5039322;28;1055;-34
2023/10/20 10:12:59;;;;;;;;;;;;;;;28.41;31.98;99919.91;5070929;28;1151;-31
2023/10/20 10:15:33;;;;;;;;;;;;;;;28.33;32.16;99928.25;5057135;28;1131;-31
2023/10/20 10:18:05;;;;;;;;;;;;;;;28.32;31.96;99907.63;5051426;28;1194;-35
2023/10/20 10:20:30;;;;;;;;;;;;;;;28.31;32.14;99911.41;5037586;28;1971;-31
2023/10/20 10:23:05;;;;;;;;;;;;;;;28.32;32.13;99915.75;5050802;28;1120;-33
2023/10/20 10:25:34;;;;;;;;;;;;;;;28.41;32.22;99917.19;5036926;28;1059;-33
2023/10/20 10:28:09;;;;;;;;;;;;;;;28.54;31.88;99910.09;5036580;28;1171;-31
2023/10/20 10:30:35;;;;;;;;;;;;;;;28.55;31.60;99918.00;5037256;28;1265;-29
2023/10/20 10:33:02;;;;;;;;;;;;;;;28.54;31.68;99916.34;5019410;28;1318;-32
2023/10/20 10:35:29;;;;;;;;;;;;;;;28.69;31.40;99909.84;5037399;28;1080;-30
2023/10/20 10:37:54;;;;;;;;;;;;;;;28.66;31.76;99902.97;5050033;28;1364;-31
2023/10/20 10:40:22;;;;;;;;;;;;;;;29.09;31.12;99900.72;5037239;28;1969;-34
2023/10/20 10:42:51;;;;;;;;;;;;;;;28.77;31.69;99893.38;5049151;28;1048;-40
2023/10/20 10:45:23;;;;;;;;;;;;;;;28.92;31.50;99903.06;5050100;28;996;-37
2023/10/20 10:48:02;;;;;;;;;;;;;;;28.98;31.22;99899.53;5045755;28;928;-33
2023/10/20 10:50:28;;;;;;;;;;;;;;;28.70;31.67;99909.63;5046942;28;1080;-35
2023/10/20 10:52:53;;;;;;;;;;;;;;;28.62;31.91;99906.31;5051525;28;841;-36
2023/10/20 10:55:19;;;;;;;;;;;;;;;28.70;31.77;99896.09;5042698;28;1103;-37
2023/10/20 10:57:44;;;;;;;;;;;;;;;28.86;31.51;99902.09;5055969;28;1055;-35
2023/10/20 11:00:15;;;;;;;;;;;;;;;28.77;31.67;99896.06;5056105;28;1957;-39
2023/10/20 11:02:41;;;;;;;;;;;;;;;28.76;31.86;99896.28;5043096;28;1270;-36
2023/10/20 11:05:07;;;;;;;;;;;;;;;28.66;31.73;99902.97;5040359;28;968;-41
2023/10/20 11:07:34;;;;;;;;;;;;;;;28.59;32.23;99897.59;5049615;28;1101;-40
2023/10/20 11:10:00;;;;;;;;;;;;;;;28.53;31.89;99884.91;5036728;28;1092;-40
2023/10/20 11:12:26;;;;;;;;;;;;;;;28.68;32.32;99898.19;5018948;28;1128;-33
2023/10/20 11:14:56;;;;;;;;;;;;;;;28.55;32.21;99898.22;5044595;28;1029;-30
2023/10/20 11:17:21;;;;;;;;;;;;;;;28.65;31.94;99895.06;5055041;28;1241;-31
2023/10/20 11:19:47;;;;;;;;;;;;;;;28.50;32.73;99893.47;5075835;28;2037;-33
2023/10/20 11:22:14;;;;;;;;;;;;;;;28.46;32.34;99898.47;5055572;28;1199;-34
2023/10/20 11:24:40;;;;;;;;;;;;;;;28.53;32.71;99893.03;5056331;28;1397;-34
2023/10/20 11:27:06;;;;;;;;;;;;;;;28.45;33.15;99891.41;5069120;28;1174;-29
2023/10/20 11:29:32;;;;;;;;;;;;;;;28.55;32.52;99890.94;5073395;28;1067;-32
2023/10/20 11:31:59;;;;;;;;;;;;;;;28.51;32.62;99884.28;5064613;28;1320;-35
2023/10/20 11:34:25;;;;;;;;;;;;;;;28.61;32.48;99891.97;5055773;28;1285;-40
2023/10/20 11:36:51;;;;;;;;;;;;;;;28.57;32.40;99888.03;5058246;28;1020;-38
2023/10/20 11:39:16;;;;;;;;;;;;;;;28.66;32.34;99892.16;5061159;28;1905;-36
2023/10/20 11:41:42;;;;;;;;;;;;;;;28.79;32.44;99890.44;5056792;28;901;-36
2023/10/20 11:44:08;;;;;;;;;;;;;;;28.87;32.06;99883.94;5056255;28;1160;-33
2023/10/20 11:46:34;;;;;;;;;;;;;;;28.93;31.87;99881.19;5056108;28;1044;-29
2023/10/20 11:48:59;;;;;;;;;;;;;;;28.77;32.41;99881.69;5069044;28;1063;-34
2023/10/20 11:51:25;;;;;;;;;;;;;;;28.76;32.36;99882.75;5068136;28;1075;-33
2023/10/20 11:53:50;;;;;;;;;;;;;;;28.78;32.50;99884.19;5040277;28;920;-33
2023/10/20 11:56:16;;;;;;;;;;;;;;;28.96;32.30;99878.06;5066825;28;1083;-32
2023/10/20 11:58:42;;;;;;;;;;;;;;;28.75;32.49;99881.06;5075370;28;1075;-36
2023/10/20 12:01:07;;;;;;;;;;;;;;;28.85;32.07;99873.34;5064757;28;1972;-35
2023/10/20 12:03:33;;;;;;;;;;;;;;;28.80;32.37;99878.56;5069092;28;1118;-38
2023/10/20 12:05:58;;;;;;;;;;;;;;;28.92;32.25;99876.84;5055746;28;880;-29
2023/10/20 12:08:24;;;;;;;;;;;;;;;28.83;32.40;99876.25;5060187;28;1054;-36
2023/10/20 12:10:50;;;;;;;;;;;;;;;28.68;32.61;99875.69;5065278;28;1032;-32
2023/10/20 12:13:15;;;;;;;;;;;;;;;28.73;32.58;99878.59;5057829;28;1136;-33
2023/10/20 12:15:41;;;;;;;;;;;;;;;28.81;32.75;99874.81;5057261;28;984;-30
2023/10/20 12:18:06;;;;;;;;;;;;;;;29.08;31.96;99882.81;5074468;28;1001;-38
2023/10/20 12:20:32;;;;;;;;;;;;;;;29.28;32.34;99874.56;5073114;28;1910;-33
2023/10/20 12:23:01;;;;;;;;;;;;;;;29.30;31.56;99887.88;5073956;28;1048;-33
2023/10/20 12:25:26;;;;;;;;;;;;;;;29.32;31.64;99878.50;5072143;28;1011;-35
2023/10/20 12:27:52;;;;;;;;;;;;;;;29.25;31.17;99883.13;5073117;28;1400;-31
2023/10/20 12:30:18;;;;;;;;;;;;;;;29.31;31.15;99895.78;5054224;28;1062;-30
2023/10/20 12:32:43;;;;;;;;;;;;;;;29.41;31.12;99902.63;5055229;28;1031;-34
2023/10/20 12:35:12;;;;;;;;;;;;;;;29.56;30.80;99891.47;5072296;28;1321;-34
2023/10/20 12:37:38;;;;;;;;;;;;;;;29.64;30.39;99898.50;5066835;28;1367;-31
2023/10/20 12:40:03;;;;;;;;;;;;;;;29.56;30.39;99896.88;5073555;28;1910;-34
2023/10/20 12:42:29;;;;;;;;;;;;;;;29.43;30.49;99897.78;5067338;28;1115;-32
2023/10/20 12:44:55;;;;;;;;;;;;;;;29.60;30.09;99903.53;5064210;28;1039;-31
2023/10/20 12:47:20;;;;;;;;;;;;;;;29.53;30.04;99906.25;5079011;28;1114;-34
2023/10/20 12:49:46;;;;;;;;;;;;;;;29.75;29.82;99913.22;5066090;28;1281;-32
2023/10/20 12:52:12;;;;;;;;;;;;;;;29.84;29.63;99908.34;5075731;28;1320;-31
2023/10/20 12:54:37;;;;;;;;;;;;;;;29.81;29.29;99909.63;5066425;28;1087;-35
2023/10/20 12:57:03;;;;;;;;;;;;;;;29.63;29.64;99916.63;5076284;28;1416;-30
2023/10/20 12:59:28;;;;;;;;;;;;;;;29.73;29.58;99918.84;5067556;28;1977;-35
2023/10/20 13:01:55;;;;;;;;;;;;;;;29.81;29.68;99921.28;5076104;28;1345;-35
2023/10/20 13:04:20;;;;;;;;;;;;;;;29.76;29.80;99923.81;5078147;28;1083;-31
2023/10/20 13:06:46;;;;;;;;;;;;;;;30.10;29.08;99917.28;5061250;28;1027;-38
2023/10/20 13:09:11;;;;;;;;;;;;;;;29.77;29.65;99920.09;5064977;28;1075;-31
2023/10/20 13:11:37;;;;;;;;;;;;;;;29.79;29.69;99925.28;5078707;28;1040;-33
2023/10/20 13:14:02;;;;;;;;;;;;;;;29.84;29.41;99919.19;5078066;28;1146;-29
2023/10/20 13:16:29;;;;;;;;;;;;;;;29.92;28.96;99927.88;5077813;28;1126;-35
2023/10/20 13:18:54;;;;;;;;;;;;;;;29.66;29.52;99927.03;5075923;28;1172;-35
2023/10/20 13:21:20;;;;;;;;;;;;;;;29.60;29.47;99918.97;5078475;28;1972;-32